sensor_id;sensor_type;location;lat;lon;timestamp;P1;durP1;ratioP1;P2;durP2;ratioP2
44328;SDS011;30039;51.462;6.892;2023-07-31T00:00:26;6.35;;;2.63;;
44328;SDS011;30039;51.462;6.892;2023-07-31T00:03:12;6.93;;;2.72;;
44328;SDS011;30039;51.462;6.892;2023-07-31T00:05:59;4.43;;;2.53;;
44328;SDS011;30039;51.462;6.892;2023-07-31T00:08:44;7.57;;;2.78;;
44328;SDS011;30039;51.462;6.892;2023-07-31T00:11:30;8.50;;;3.05;;
44328;SDS011;30039;51.462;6.892;2023-07-31T00:14:15;4.68;;;2.33;;
44328;SDS011;30039;51.462;6.892;2023-07-31T00:17:01;4.35;;;2.30;;
44328;SDS011;30039;51.462;6.892;2023-07-31T00:19:47;7.90;;;3.08;;
44328;SDS011;30039;51.462;6.892;2023-07-31T00:22:35;7.60;;;2.45;;
44328;SDS011;30039;51.462;6.892;2023-07-31T00:25:21;7.15;;;2.70;;
44328;SDS011;30039;51.462;6.892;2023-07-31T00:28:07;8.95;;;3.08;;
44328;SDS011;30039;51.462;6.892;2023-07-31T00:30:53;7.47;;;2.90;;
44328;SDS011;30039;51.462;6.892;2023-07-31T00:33:38;7.78;;;2.60;;
44328;SDS011;30039;51.462;6.892;2023-07-31T00:36:24;7.97;;;3.03;;
44328;SDS011;30039;51.462;6.892;2023-07-31T00:39:09;8.63;;;2.83;;
44328;SDS011;30039;51.462;6.892;2023-07-31T00:41:55;7.35;;;2.95;;
44328;SDS011;30039;51.462;6.892;2023-07-31T00:44:40;8.55;;;3.20;;
44328;SDS011;30039;51.462;6.892;2023-07-31T00:47:26;8.40;;;2.92;;
44328;SDS011;30039;51.462;6.892;2023-07-31T00:50:12;7.95;;;2.88;;
44328;SDS011;30039;51.462;6.892;2023-07-31T00:52:58;5.28;;;2.47;;
44328;SDS011;30039;51.462;6.892;2023-07-31T00:55:44;5.78;;;2.60;;
44328;SDS011;30039;51.462;6.892;2023-07-31T00:58:30;7.82;;;2.88;;
44328;SDS011;30039;51.462;6.892;2023-07-31T01:01:16;5.95;;;2.88;;
44328;SDS011;30039;51.462;6.892;2023-07-31T01:04:01;7.60;;;2.78;;
44328;SDS011;30039;51.462;6.892;2023-07-31T01:12:24;7.03;;;2.75;;
44328;SDS011;30039;51.462;6.892;2023-07-31T01:15:13;8.27;;;3.30;;
44328;SDS011;30039;51.462;6.892;2023-07-31T01:18:00;9.30;;;2.83;;
44328;SDS011;30039;51.462;6.892;2023-07-31T01:20:46;5.90;;;2.75;;
44328;SDS011;30039;51.462;6.892;2023-07-31T01:26:21;8.32;;;2.47;;
44328;SDS011;30039;51.462;6.892;2023-07-31T01:29:08;9.32;;;2.75;;
44328;SDS011;30039;51.462;6.892;2023-07-31T01:31:55;8.07;;;3.08;;
44328;SDS011;30039;51.462;6.892;2023-07-31T01:34:42;7.53;;;2.55;;
44328;SDS011;30039;51.462;6.892;2023-07-31T01:37:28;5.75;;;2.60;;
44328;SDS011;30039;51.462;6.892;2023-07-31T01:40:14;6.18;;;2.15;;
44328;SDS011;30039;51.462;6.892;2023-07-31T01:43:00;7.80;;;2.75;;
44328;SDS011;30039;51.462;6.892;2023-07-31T01:45:46;9.55;;;3.03;;
44328;SDS011;30039;51.462;6.892;2023-07-31T01:48:32;7.63;;;2.90;;
44328;SDS011;30039;51.462;6.892;2023-07-31T01:51:21;6.55;;;2.92;;
44328;SDS011;30039;51.462;6.892;2023-07-31T01:54:06;9.45;;;3.10;;
44328;SDS011;30039;51.462;6.892;2023-07-31T01:56:52;9.27;;;3.08;;
44328;SDS011;30039;51.462;6.892;2023-07-31T01:59:37;6.22;;;2.72;;
44328;SDS011;30039;51.462;6.892;2023-07-31T02:02:23;7.88;;;2.50;;
44328;SDS011;30039;51.462;6.892;2023-07-31T02:05:09;6.35;;;2.40;;
44328;SDS011;30039;51.462;6.892;2023-07-31T02:07:54;9.07;;;2.78;;
44328;SDS011;30039;51.462;6.892;2023-07-31T02:10:40;11.05;;;3.13;;
44328;SDS011;30039;51.462;6.892;2023-07-31T02:13:25;10.80;;;3.05;;
44328;SDS011;30039;51.462;6.892;2023-07-31T02:16:11;8.50;;;3.08;;
44328;SDS011;30039;51.462;6.892;2023-07-31T02:18:57;9.13;;;3.55;;
44328;SDS011;30039;51.462;6.892;2023-07-31T02:21:43;7.45;;;3.20;;
44328;SDS011;30039;51.462;6.892;2023-07-31T02:24:28;11.20;;;3.33;;
44328;SDS011;30039;51.462;6.892;2023-07-31T02:27:14;7.15;;;2.75;;
44328;SDS011;30039;51.462;6.892;2023-07-31T02:30:00;11.18;;;2.90;;
44328;SDS011;30039;51.462;6.892;2023-07-31T02:32:45;9.68;;;3.00;;
44328;SDS011;30039;51.462;6.892;2023-07-31T02:35:31;8.75;;;2.88;;
44328;SDS011;30039;51.462;6.892;2023-07-31T02:38:16;11.73;;;3.55;;
44328;SDS011;30039;51.462;6.892;2023-07-31T02:41:02;13.68;;;3.20;;
44328;SDS011;30039;51.462;6.892;2023-07-31T02:43:48;10.38;;;3.13;;
44328;SDS011;30039;51.462;6.892;2023-07-31T02:46:33;6.30;;;2.53;;
44328;SDS011;30039;51.462;6.892;2023-07-31T02:49:19;12.02;;;3.00;;
44328;SDS011;30039;51.462;6.892;2023-07-31T02:52:05;8.32;;;3.03;;
44328;SDS011;30039;51.462;6.892;2023-07-31T02:54:50;6.63;;;2.40;;
44328;SDS011;30039;51.462;6.892;2023-07-31T02:57:36;11.38;;;3.13;;
44328;SDS011;30039;51.462;6.892;2023-07-31T03:00:22;11.27;;;3.22;;
44328;SDS011;30039;51.462;6.892;2023-07-31T03:03:07;10.25;;;3.08;;
44328;SDS011;30039;51.462;6.892;2023-07-31T03:05:53;12.40;;;3.72;;
44328;SDS011;30039;51.462;6.892;2023-07-31T03:08:39;9.30;;;3.08;;
44328;SDS011;30039;51.462;6.892;2023-07-31T03:11:24;7.50;;;3.05;;
44328;SDS011;30039;51.462;6.892;2023-07-31T03:14:10;6.50;;;2.72;;
44328;SDS011;30039;51.462;6.892;2023-07-31T03:16:55;8.30;;;3.28;;
44328;SDS011;30039;51.462;6.892;2023-07-31T03:19:41;9.18;;;3.50;;
44328;SDS011;30039;51.462;6.892;2023-07-31T03:22:27;9.02;;;3.10;;
44328;SDS011;30039;51.462;6.892;2023-07-31T03:25:14;7.85;;;3.63;;
44328;SDS011;30039;51.462;6.892;2023-07-31T03:28:00;9.32;;;3.50;;
44328;SDS011;30039;51.462;6.892;2023-07-31T03:30:45;11.43;;;3.80;;
44328;SDS011;30039;51.462;6.892;2023-07-31T03:33:31;8.65;;;3.00;;
44328;SDS011;30039;51.462;6.892;2023-07-31T03:36:16;8.38;;;2.90;;
44328;SDS011;30039;51.462;6.892;2023-07-31T03:39:02;7.55;;;3.38;;
44328;SDS011;30039;51.462;6.892;2023-07-31T03:41:48;10.73;;;3.45;;
44328;SDS011;30039;51.462;6.892;2023-07-31T03:44:34;10.75;;;3.28;;
44328;SDS011;30039;51.462;6.892;2023-07-31T03:47:19;7.65;;;3.00;;
44328;SDS011;30039;51.462;6.892;2023-07-31T03:50:05;10.65;;;2.90;;
44328;SDS011;30039;51.462;6.892;2023-07-31T03:52:51;10.07;;;3.83;;
44328;SDS011;30039;51.462;6.892;2023-07-31T03:55:37;8.48;;;2.95;;
44328;SDS011;30039;51.462;6.892;2023-07-31T03:58:23;9.27;;;3.15;;
44328;SDS011;30039;51.462;6.892;2023-07-31T04:01:08;13.65;;;3.25;;
44328;SDS011;30039;51.462;6.892;2023-07-31T04:03:54;10.68;;;2.78;;
44328;SDS011;30039;51.462;6.892;2023-07-31T04:06:39;9.07;;;3.28;;
44328;SDS011;30039;51.462;6.892;2023-07-31T04:09:25;6.82;;;3.40;;
44328;SDS011;30039;51.462;6.892;2023-07-31T04:12:11;11.93;;;3.80;;
44328;SDS011;30039;51.462;6.892;2023-07-31T04:14:56;7.97;;;3.38;;
44328;SDS011;30039;51.462;6.892;2023-07-31T04:17:42;6.15;;;3.22;;
44328;SDS011;30039;51.462;6.892;2023-07-31T04:20:28;9.70;;;3.47;;
44328;SDS011;30039;51.462;6.892;2023-07-31T04:23:13;7.97;;;3.28;;
44328;SDS011;30039;51.462;6.892;2023-07-31T04:25:59;11.00;;;3.80;;
44328;SDS011;30039;51.462;6.892;2023-07-31T04:28:44;9.65;;;3.17;;
44328;SDS011;30039;51.462;6.892;2023-07-31T04:31:30;7.05;;;3.20;;
44328;SDS011;30039;51.462;6.892;2023-07-31T04:34:16;9.68;;;3.38;;
44328;SDS011;30039;51.462;6.892;2023-07-31T04:37:01;11.90;;;3.70;;
44328;SDS011;30039;51.462;6.892;2023-07-31T04:39:47;10.70;;;3.40;;
44328;SDS011;30039;51.462;6.892;2023-07-31T04:42:33;12.55;;;3.00;;
44328;SDS011;30039;51.462;6.892;2023-07-31T04:45:19;7.72;;;3.80;;
44328;SDS011;30039;51.462;6.892;2023-07-31T04:48:05;7.88;;;3.10;;
44328;SDS011;30039;51.462;6.892;2023-07-31T04:50:51;8.23;;;3.42;;
44328;SDS011;30039;51.462;6.892;2023-07-31T04:53:36;5.53;;;2.75;;
44328;SDS011;30039;51.462;6.892;2023-07-31T04:56:22;11.20;;;2.97;;
44328;SDS011;30039;51.462;6.892;2023-07-31T04:59:08;7.30;;;2.80;;
44328;SDS011;30039;51.462;6.892;2023-07-31T05:01:53;10.50;;;2.95;;
44328;SDS011;30039;51.462;6.892;2023-07-31T05:04:39;6.35;;;2.88;;
44328;SDS011;30039;51.462;6.892;2023-07-31T05:07:24;6.50;;;3.05;;
44328;SDS011;30039;51.462;6.892;2023-07-31T05:10:10;7.75;;;3.35;;
44328;SDS011;30039;51.462;6.892;2023-07-31T05:12:56;6.55;;;2.85;;
44328;SDS011;30039;51.462;6.892;2023-07-31T05:15:41;7.78;;;2.67;;
44328;SDS011;30039;51.462;6.892;2023-07-31T05:18:27;6.43;;;3.33;;
44328;SDS011;30039;51.462;6.892;2023-07-31T05:21:14;9.18;;;3.05;;
44328;SDS011;30039;51.462;6.892;2023-07-31T05:24:00;8.02;;;3.65;;
44328;SDS011;30039;51.462;6.892;2023-07-31T05:26:46;9.25;;;2.90;;
44328;SDS011;30039;51.462;6.892;2023-07-31T05:29:32;8.63;;;3.15;;
44328;SDS011;30039;51.462;6.892;2023-07-31T05:32:17;7.47;;;3.13;;
44328;SDS011;30039;51.462;6.892;2023-07-31T05:35:03;9.45;;;3.20;;
44328;SDS011;30039;51.462;6.892;2023-07-31T05:37:49;8.82;;;3.25;;
44328;SDS011;30039;51.462;6.892;2023-07-31T05:40:34;5.75;;;2.95;;
44328;SDS011;30039;51.462;6.892;2023-07-31T05:43:20;7.38;;;2.92;;
44328;SDS011;30039;51.462;6.892;2023-07-31T05:46:06;5.72;;;2.85;;
44328;SDS011;30039;51.462;6.892;2023-07-31T05:48:52;6.40;;;3.10;;
44328;SDS011;30039;51.462;6.892;2023-07-31T05:51:37;6.68;;;3.25;;
44328;SDS011;30039;51.462;6.892;2023-07-31T05:54:23;8.70;;;3.10;;
44328;SDS011;30039;51.462;6.892;2023-07-31T05:57:09;8.05;;;2.95;;
44328;SDS011;30039;51.462;6.892;2023-07-31T05:59:54;8.73;;;3.53;;
44328;SDS011;30039;51.462;6.892;2023-07-31T06:02:40;6.78;;;3.05;;
44328;SDS011;30039;51.462;6.892;2023-07-31T06:05:25;11.65;;;3.30;;
44328;SDS011;30039;51.462;6.892;2023-07-31T06:08:13;8.55;;;3.20;;
44328;SDS011;30039;51.462;6.892;2023-07-31T06:11:00;9.50;;;3.30;;
44328;SDS011;30039;51.462;6.892;2023-07-31T06:13:46;9.25;;;3.17;;
44328;SDS011;30039;51.462;6.892;2023-07-31T06:16:33;7.57;;;3.45;;
44328;SDS011;30039;51.462;6.892;2023-07-31T06:19:19;12.38;;;3.83;;
44328;SDS011;30039;51.462;6.892;2023-07-31T06:22:05;8.50;;;3.80;;
44328;SDS011;30039;51.462;6.892;2023-07-31T06:24:51;7.03;;;2.95;;
44328;SDS011;30039;51.462;6.892;2023-07-31T06:27:36;5.82;;;3.25;;
44328;SDS011;30039;51.462;6.892;2023-07-31T06:30:22;6.93;;;3.45;;
44328;SDS011;30039;51.462;6.892;2023-07-31T06:33:08;8.45;;;3.47;;
44328;SDS011;30039;51.462;6.892;2023-07-31T06:35:54;6.40;;;3.42;;
44328;SDS011;30039;51.462;6.892;2023-07-31T06:38:40;7.15;;;3.25;;
44328;SDS011;30039;51.462;6.892;2023-07-31T06:41:25;6.15;;;3.33;;
44328;SDS011;30039;51.462;6.892;2023-07-31T06:44:11;8.65;;;3.45;;
44328;SDS011;30039;51.462;6.892;2023-07-31T06:46:57;6.72;;;3.30;;
44328;SDS011;30039;51.462;6.892;2023-07-31T06:49:42;7.90;;;3.60;;
44328;SDS011;30039;51.462;6.892;2023-07-31T06:52:28;7.55;;;3.35;;
44328;SDS011;30039;51.462;6.892;2023-07-31T06:55:17;7.05;;;3.63;;
44328;SDS011;30039;51.462;6.892;2023-07-31T06:58:04;7.28;;;3.83;;
44328;SDS011;30039;51.462;6.892;2023-07-31T07:00:49;8.05;;;3.30;;
44328;SDS011;30039;51.462;6.892;2023-07-31T07:03:36;6.97;;;3.05;;
44328;SDS011;30039;51.462;6.892;2023-07-31T07:06:22;7.75;;;3.40;;
44328;SDS011;30039;51.462;6.892;2023-07-31T07:09:08;6.20;;;3.13;;
44328;SDS011;30039;51.462;6.892;2023-07-31T07:11:53;7.65;;;3.22;;
44328;SDS011;30039;51.462;6.892;2023-07-31T07:14:39;6.55;;;3.45;;
44328;SDS011;30039;51.462;6.892;2023-07-31T07:17:25;7.85;;;3.30;;
44328;SDS011;30039;51.462;6.892;2023-07-31T07:20:10;6.85;;;3.05;;
44328;SDS011;30039;51.462;6.892;2023-07-31T07:22:56;6.82;;;2.88;;
44328;SDS011;30039;51.462;6.892;2023-07-31T07:25:45;6.45;;;2.80;;
44328;SDS011;30039;51.462;6.892;2023-07-31T07:28:31;5.80;;;2.83;;
44328;SDS011;30039;51.462;6.892;2023-07-31T07:31:16;3.92;;;2.50;;
44328;SDS011;30039;51.462;6.892;2023-07-31T07:34:02;8.45;;;3.47;;
44328;SDS011;30039;51.462;6.892;2023-07-31T07:36:48;9.77;;;3.30;;
44328;SDS011;30039;51.462;6.892;2023-07-31T07:39:34;6.60;;;3.53;;
44328;SDS011;30039;51.462;6.892;2023-07-31T07:42:20;6.10;;;2.92;;
44328;SDS011;30039;51.462;6.892;2023-07-31T07:45:05;6.88;;;2.88;;
44328;SDS011;30039;51.462;6.892;2023-07-31T07:47:51;5.03;;;2.78;;
44328;SDS011;30039;51.462;6.892;2023-07-31T07:50:38;7.47;;;3.22;;
44328;SDS011;30039;51.462;6.892;2023-07-31T07:53:24;8.10;;;3.10;;
44328;SDS011;30039;51.462;6.892;2023-07-31T07:56:09;7.53;;;2.90;;
44328;SDS011;30039;51.462;6.892;2023-07-31T07:58:55;5.32;;;2.95;;
44328;SDS011;30039;51.462;6.892;2023-07-31T08:01:40;5.75;;;2.70;;
44328;SDS011;30039;51.462;6.892;2023-07-31T08:04:26;9.50;;;2.85;;
44328;SDS011;30039;51.462;6.892;2023-07-31T08:07:12;7.95;;;2.53;;
44328;SDS011;30039;51.462;6.892;2023-07-31T08:09:58;7.97;;;2.83;;
44328;SDS011;30039;51.462;6.892;2023-07-31T08:12:43;5.82;;;2.17;;
44328;SDS011;30039;51.462;6.892;2023-07-31T08:15:29;5.63;;;2.00;;
44328;SDS011;30039;51.462;6.892;2023-07-31T08:18:15;5.00;;;2.35;;
44328;SDS011;30039;51.462;6.892;2023-07-31T08:21:02;5.13;;;2.38;;
44328;SDS011;30039;51.462;6.892;2023-07-31T08:23:48;4.90;;;2.63;;
44328;SDS011;30039;51.462;6.892;2023-07-31T08:26:34;4.70;;;2.20;;
44328;SDS011;30039;51.462;6.892;2023-07-31T08:29:19;4.63;;;2.40;;
44328;SDS011;30039;51.462;6.892;2023-07-31T08:32:05;3.53;;;1.80;;
44328;SDS011;30039;51.462;6.892;2023-07-31T08:34:51;5.93;;;2.60;;
44328;SDS011;30039;51.462;6.892;2023-07-31T08:37:37;5.07;;;2.13;;
44328;SDS011;30039;51.462;6.892;2023-07-31T08:40:23;5.45;;;2.53;;
44328;SDS011;30039;51.462;6.892;2023-07-31T08:43:09;5.55;;;2.67;;
44328;SDS011;30039;51.462;6.892;2023-07-31T08:45:54;3.67;;;2.20;;
44328;SDS011;30039;51.462;6.892;2023-07-31T08:48:41;7.00;;;2.20;;
44328;SDS011;30039;51.462;6.892;2023-07-31T08:51:27;6.50;;;2.10;;
44328;SDS011;30039;51.462;6.892;2023-07-31T08:54:13;3.85;;;2.10;;
44328;SDS011;30039;51.462;6.892;2023-07-31T08:56:59;5.38;;;1.88;;
44328;SDS011;30039;51.462;6.892;2023-07-31T08:59:45;5.38;;;2.30;;
44328;SDS011;30039;51.462;6.892;2023-07-31T09:02:34;6.57;;;2.10;;
44328;SDS011;30039;51.462;6.892;2023-07-31T09:05:21;5.97;;;2.45;;
44328;SDS011;30039;51.462;6.892;2023-07-31T09:08:09;5.85;;;2.15;;
44328;SDS011;30039;51.462;6.892;2023-07-31T09:10:58;4.30;;;2.35;;
44328;SDS011;30039;51.462;6.892;2023-07-31T09:13:44;3.40;;;2.10;;
44328;SDS011;30039;51.462;6.892;2023-07-31T09:16:31;5.07;;;2.22;;
44328;SDS011;30039;51.462;6.892;2023-07-31T09:19:24;6.63;;;2.28;;
44328;SDS011;30039;51.462;6.892;2023-07-31T09:22:10;3.58;;;1.98;;
44328;SDS011;30039;51.462;6.892;2023-07-31T09:24:56;3.63;;;2.13;;
44328;SDS011;30039;51.462;6.892;2023-07-31T09:27:52;2.88;;;1.65;;
44328;SDS011;30039;51.462;6.892;2023-07-31T09:30:45;5.18;;;1.98;;
44328;SDS011;30039;51.462;6.892;2023-07-31T09:33:31;5.07;;;1.80;;
44328;SDS011;30039;51.462;6.892;2023-07-31T09:36:17;4.10;;;2.40;;
44328;SDS011;30039;51.462;6.892;2023-07-31T09:39:03;3.30;;;2.10;;
44328;SDS011;30039;51.462;6.892;2023-07-31T09:41:55;2.67;;;1.60;;
44328;SDS011;30039;51.462;6.892;2023-07-31T09:44:41;3.90;;;1.65;;
44328;SDS011;30039;51.462;6.892;2023-07-31T09:47:27;4.45;;;1.73;;
44328;SDS011;30039;51.462;6.892;2023-07-31T09:50:12;3.35;;;1.85;;
44328;SDS011;30039;51.462;6.892;2023-07-31T09:53:01;3.78;;;2.03;;
44328;SDS011;30039;51.462;6.892;2023-07-31T09:55:47;2.50;;;1.63;;
44328;SDS011;30039;51.462;6.892;2023-07-31T09:58:34;3.40;;;1.50;;
44328;SDS011;30039;51.462;6.892;2023-07-31T10:01:19;3.22;;;1.73;;
44328;SDS011;30039;51.462;6.892;2023-07-31T10:04:05;3.03;;;1.63;;
44328;SDS011;30039;51.462;6.892;2023-07-31T10:06:52;4.47;;;1.73;;
44328;SDS011;30039;51.462;6.892;2023-07-31T10:09:38;2.78;;;1.55;;
44328;SDS011;30039;51.462;6.892;2023-07-31T10:12:25;3.45;;;1.80;;
44328;SDS011;30039;51.462;6.892;2023-07-31T10:15:13;2.30;;;1.42;;
44328;SDS011;30039;51.462;6.892;2023-07-31T10:18:00;3.08;;;1.33;;
44328;SDS011;30039;51.462;6.892;2023-07-31T10:20:46;2.83;;;1.60;;
44328;SDS011;30039;51.462;6.892;2023-07-31T10:23:32;2.67;;;1.67;;
44328;SDS011;30039;51.462;6.892;2023-07-31T10:26:18;4.53;;;1.90;;
44328;SDS011;30039;51.462;6.892;2023-07-31T10:29:05;3.47;;;1.90;;
44328;SDS011;30039;51.462;6.892;2023-07-31T10:31:51;4.00;;;2.00;;
44328;SDS011;30039;51.462;6.892;2023-07-31T10:34:38;3.25;;;1.90;;
44328;SDS011;30039;51.462;6.892;2023-07-31T10:37:25;4.63;;;2.38;;
44328;SDS011;30039;51.462;6.892;2023-07-31T10:40:13;6.38;;;2.38;;
44328;SDS011;30039;51.462;6.892;2023-07-31T10:42:58;3.75;;;2.55;;
44328;SDS011;30039;51.462;6.892;2023-07-31T10:45:44;5.35;;;2.58;;
44328;SDS011;30039;51.462;6.892;2023-07-31T10:48:32;7.05;;;2.53;;
44328;SDS011;30039;51.462;6.892;2023-07-31T10:51:18;6.95;;;2.67;;
44328;SDS011;30039;51.462;6.892;2023-07-31T10:54:13;3.72;;;2.10;;
44328;SDS011;30039;51.462;6.892;2023-07-31T10:57:00;6.53;;;2.58;;
44328;SDS011;30039;51.462;6.892;2023-07-31T10:59:46;5.07;;;2.40;;
44328;SDS011;30039;51.462;6.892;2023-07-31T11:02:32;7.85;;;2.20;;
44328;SDS011;30039;51.462;6.892;2023-07-31T11:05:18;3.72;;;1.92;;
44328;SDS011;30039;51.462;6.892;2023-07-31T11:08:10;5.10;;;2.13;;
44328;SDS011;30039;51.462;6.892;2023-07-31T11:13:47;3.45;;;2.00;;
44328;SDS011;30039;51.462;6.892;2023-07-31T11:16:37;4.10;;;2.55;;
44328;SDS011;30039;51.462;6.892;2023-07-31T11:19:23;3.42;;;2.20;;
44328;SDS011;30039;51.462;6.892;2023-07-31T11:22:09;6.30;;;3.13;;
44328;SDS011;30039;51.462;6.892;2023-07-31T11:24:55;7.53;;;3.00;;
44328;SDS011;30039;51.462;6.892;2023-07-31T11:27:41;5.25;;;2.50;;
44328;SDS011;30039;51.462;6.892;2023-07-31T11:30:28;5.18;;;2.63;;
44328;SDS011;30039;51.462;6.892;2023-07-31T11:33:14;4.13;;;2.40;;
44328;SDS011;30039;51.462;6.892;2023-07-31T11:36:00;4.28;;;2.10;;
44328;SDS011;30039;51.462;6.892;2023-07-31T11:38:45;4.07;;;2.17;;
44328;SDS011;30039;51.462;6.892;2023-07-31T11:41:31;5.00;;;2.30;;
44328;SDS011;30039;51.462;6.892;2023-07-31T11:44:17;5.50;;;2.10;;
44328;SDS011;30039;51.462;6.892;2023-07-31T11:47:02;5.20;;;2.60;;
44328;SDS011;30039;51.462;6.892;2023-07-31T11:49:48;4.72;;;2.20;;
44328;SDS011;30039;51.462;6.892;2023-07-31T11:52:37;3.85;;;2.08;;
44328;SDS011;30039;51.462;6.892;2023-07-31T11:55:24;4.47;;;2.08;;
44328;SDS011;30039;51.462;6.892;2023-07-31T11:58:10;5.13;;;1.83;;
44328;SDS011;30039;51.462;6.892;2023-07-31T12:00:56;3.70;;;2.00;;
44328;SDS011;30039;51.462;6.892;2023-07-31T12:03:43;3.55;;;2.03;;
44328;SDS011;30039;51.462;6.892;2023-07-31T12:06:33;6.32;;;2.30;;
44328;SDS011;30039;51.462;6.892;2023-07-31T12:09:19;4.07;;;2.05;;
44328;SDS011;30039;51.462;6.892;2023-07-31T12:12:08;3.38;;;2.10;;
44328;SDS011;30039;51.462;6.892;2023-07-31T12:14:54;5.85;;;2.55;;
44328;SDS011;30039;51.462;6.892;2023-07-31T12:17:40;4.32;;;2.22;;
44328;SDS011;30039;51.462;6.892;2023-07-31T12:20:26;4.22;;;2.25;;
44328;SDS011;30039;51.462;6.892;2023-07-31T12:23:16;3.63;;;2.25;;
44328;SDS011;30039;51.462;6.892;2023-07-31T12:28:48;4.00;;;2.30;;
44328;SDS011;30039;51.462;6.892;2023-07-31T12:31:34;6.18;;;2.72;;
44328;SDS011;30039;51.462;6.892;2023-07-31T12:34:20;4.00;;;2.40;;
44328;SDS011;30039;51.462;6.892;2023-07-31T12:37:08;4.93;;;2.25;;
44328;SDS011;30039;51.462;6.892;2023-07-31T12:39:54;3.72;;;1.73;;
44328;SDS011;30039;51.462;6.892;2023-07-31T12:42:40;3.50;;;2.10;;
44328;SDS011;30039;51.462;6.892;2023-07-31T12:45:26;3.00;;;1.65;;
44328;SDS011;30039;51.462;6.892;2023-07-31T12:48:12;2.25;;;1.42;;
44328;SDS011;30039;51.462;6.892;2023-07-31T12:50:58;2.80;;;1.58;;
44328;SDS011;30039;51.462;6.892;2023-07-31T12:53:43;4.05;;;1.88;;
44328;SDS011;30039;51.462;6.892;2023-07-31T12:56:29;3.45;;;1.70;;
44328;SDS011;30039;51.462;6.892;2023-07-31T12:59:14;3.63;;;1.98;;
44328;SDS011;30039;51.462;6.892;2023-07-31T13:02:00;2.60;;;1.60;;
44328;SDS011;30039;51.462;6.892;2023-07-31T13:04:46;3.08;;;1.80;;
44328;SDS011;30039;51.462;6.892;2023-07-31T13:07:31;4.00;;;1.60;;
44328;SDS011;30039;51.462;6.892;2023-07-31T13:10:17;5.75;;;1.73;;
44328;SDS011;30039;51.462;6.892;2023-07-31T13:13:03;3.13;;;1.73;;
44328;SDS011;30039;51.462;6.892;2023-07-31T13:15:48;4.70;;;1.70;;
44328;SDS011;30039;51.462;6.892;2023-07-31T13:18:34;3.30;;;2.05;;
44328;SDS011;30039;51.462;6.892;2023-07-31T13:21:20;2.90;;;1.40;;
44328;SDS011;30039;51.462;6.892;2023-07-31T13:24:07;2.65;;;1.65;;
44328;SDS011;30039;51.462;6.892;2023-07-31T13:26:53;1.75;;;1.38;;
44328;SDS011;30039;51.462;6.892;2023-07-31T13:29:38;4.38;;;1.77;;
44328;SDS011;30039;51.462;6.892;2023-07-31T13:32:24;5.22;;;2.08;;
44328;SDS011;30039;51.462;6.892;2023-07-31T13:35:10;6.18;;;2.28;;
44328;SDS011;30039;51.462;6.892;2023-07-31T13:37:57;3.63;;;2.08;;
44328;SDS011;30039;51.462;6.892;2023-07-31T13:40:43;6.85;;;2.05;;
44328;SDS011;30039;51.462;6.892;2023-07-31T13:43:28;3.15;;;1.77;;
44328;SDS011;30039;51.462;6.892;2023-07-31T13:46:14;4.68;;;2.38;;
44328;SDS011;30039;51.462;6.892;2023-07-31T13:48:59;3.42;;;1.75;;
44328;SDS011;30039;51.462;6.892;2023-07-31T13:51:46;3.80;;;1.98;;
44328;SDS011;30039;51.462;6.892;2023-07-31T13:54:32;4.95;;;2.22;;
44328;SDS011;30039;51.462;6.892;2023-07-31T13:57:18;4.07;;;2.38;;
44328;SDS011;30039;51.462;6.892;2023-07-31T14:00:04;4.30;;;2.47;;
44328;SDS011;30039;51.462;6.892;2023-07-31T14:02:50;4.25;;;2.20;;
44328;SDS011;30039;51.462;6.892;2023-07-31T14:05:35;4.82;;;2.50;;
44328;SDS011;30039;51.462;6.892;2023-07-31T14:08:21;5.95;;;2.47;;
44328;SDS011;30039;51.462;6.892;2023-07-31T14:11:07;4.97;;;2.63;;
44328;SDS011;30039;51.462;6.892;2023-07-31T14:13:52;5.80;;;2.65;;
44328;SDS011;30039;51.462;6.892;2023-07-31T14:16:38;5.45;;;2.55;;
44328;SDS011;30039;51.462;6.892;2023-07-31T14:19:24;3.88;;;2.20;;
44328;SDS011;30039;51.462;6.892;2023-07-31T14:22:10;8.00;;;2.90;;
44328;SDS011;30039;51.462;6.892;2023-07-31T14:24:59;4.90;;;2.50;;
44328;SDS011;30039;51.462;6.892;2023-07-31T14:27:45;4.65;;;2.40;;
44328;SDS011;30039;51.462;6.892;2023-07-31T14:30:30;5.35;;;2.80;;
44328;SDS011;30039;51.462;6.892;2023-07-31T14:33:16;5.20;;;2.33;;
44328;SDS011;30039;51.462;6.892;2023-07-31T14:36:01;4.55;;;2.25;;
44328;SDS011;30039;51.462;6.892;2023-07-31T14:38:47;4.50;;;2.65;;
44328;SDS011;30039;51.462;6.892;2023-07-31T14:41:33;5.40;;;2.40;;
44328;SDS011;30039;51.462;6.892;2023-07-31T14:44:18;4.32;;;2.67;;
44328;SDS011;30039;51.462;6.892;2023-07-31T14:47:04;4.88;;;2.05;;
44328;SDS011;30039;51.462;6.892;2023-07-31T14:49:50;4.55;;;2.65;;
44328;SDS011;30039;51.462;6.892;2023-07-31T14:52:36;4.03;;;2.42;;
44328;SDS011;30039;51.462;6.892;2023-07-31T14:55:21;7.13;;;2.60;;
44328;SDS011;30039;51.462;6.892;2023-07-31T14:58:07;5.03;;;2.63;;
44328;SDS011;30039;51.462;6.892;2023-07-31T15:00:52;5.35;;;2.80;;
44328;SDS011;30039;51.462;6.892;2023-07-31T15:03:38;4.80;;;2.72;;
44328;SDS011;30039;51.462;6.892;2023-07-31T15:06:24;5.18;;;2.50;;
44328;SDS011;30039;51.462;6.892;2023-07-31T15:09:09;5.70;;;3.00;;
44328;SDS011;30039;51.462;6.892;2023-07-31T15:11:55;4.20;;;2.70;;
44328;SDS011;30039;51.462;6.892;2023-07-31T15:14:41;6.22;;;2.90;;
44328;SDS011;30039;51.462;6.892;2023-07-31T15:17:27;4.60;;;2.50;;
44328;SDS011;30039;51.462;6.892;2023-07-31T15:20:14;6.95;;;2.40;;
44328;SDS011;30039;51.462;6.892;2023-07-31T15:22:59;5.05;;;2.30;;
44328;SDS011;30039;51.462;6.892;2023-07-31T15:25:45;4.82;;;2.95;;
44328;SDS011;30039;51.462;6.892;2023-07-31T15:28:31;6.18;;;2.33;;
44328;SDS011;30039;51.462;6.892;2023-07-31T15:31:19;6.00;;;2.30;;
44328;SDS011;30039;51.462;6.892;2023-07-31T15:34:05;5.53;;;2.60;;
44328;SDS011;30039;51.462;6.892;2023-07-31T15:36:51;4.18;;;2.60;;
44328;SDS011;30039;51.462;6.892;2023-07-31T15:39:36;4.47;;;2.55;;
44328;SDS011;30039;51.462;6.892;2023-07-31T15:42:22;6.85;;;2.72;;
44328;SDS011;30039;51.462;6.892;2023-07-31T15:45:08;6.10;;;2.70;;
44328;SDS011;30039;51.462;6.892;2023-07-31T15:47:54;5.13;;;2.72;;
44328;SDS011;30039;51.462;6.892;2023-07-31T15:50:39;5.10;;;2.97;;
44328;SDS011;30039;51.462;6.892;2023-07-31T15:53:25;4.10;;;3.03;;
44328;SDS011;30039;51.462;6.892;2023-07-31T15:56:11;6.40;;;3.03;;
44328;SDS011;30039;51.462;6.892;2023-07-31T15:58:56;5.30;;;2.60;;
44328;SDS011;30039;51.462;6.892;2023-07-31T16:01:43;6.35;;;2.95;;
44328;SDS011;30039;51.462;6.892;2023-07-31T16:04:29;11.88;;;3.42;;
44328;SDS011;30039;51.462;6.892;2023-07-31T16:07:15;7.00;;;3.13;;
44328;SDS011;30039;51.462;6.892;2023-07-31T16:10:01;6.00;;;2.90;;
44328;SDS011;30039;51.462;6.892;2023-07-31T16:12:46;8.75;;;2.88;;
44328;SDS011;30039;51.462;6.892;2023-07-31T16:15:32;6.95;;;2.75;;
44328;SDS011;30039;51.462;6.892;2023-07-31T16:18:18;4.05;;;2.42;;
44328;SDS011;30039;51.462;6.892;2023-07-31T16:21:03;7.55;;;2.70;;
44328;SDS011;30039;51.462;6.892;2023-07-31T16:23:49;3.88;;;2.85;;
44328;SDS011;30039;51.462;6.892;2023-07-31T16:26:35;5.75;;;2.95;;
44328;SDS011;30039;51.462;6.892;2023-07-31T16:29:20;6.03;;;2.58;;
44328;SDS011;30039;51.462;6.892;2023-07-31T16:32:06;4.75;;;2.97;;
44328;SDS011;30039;51.462;6.892;2023-07-31T16:34:52;6.95;;;3.03;;
44328;SDS011;30039;51.462;6.892;2023-07-31T16:37:37;6.07;;;2.83;;
44328;SDS011;30039;51.462;6.892;2023-07-31T16:40:23;7.22;;;3.10;;
44328;SDS011;30039;51.462;6.892;2023-07-31T16:43:09;6.45;;;2.72;;
44328;SDS011;30039;51.462;6.892;2023-07-31T16:45:55;3.80;;;2.38;;
44328;SDS011;30039;51.462;6.892;2023-07-31T16:48:41;5.70;;;2.60;;
44328;SDS011;30039;51.462;6.892;2023-07-31T16:51:27;7.53;;;3.47;;